TimePDT,TemperatureF,Dew PointF,Humidity,Sea Level PressureIn,VisibilityMPH,Wind Direction,Wind SpeedMPH,Gust SpeedMPH,PrecipitationIn,Events,Conditions,WindDirDegrees,DateUTC
12:53 AM,46.0,44.1,93,30.13,10.0,Calm,Calm,-,N/A,,Clear,0,2013-10-06 07:53:00
1:53 AM,44.1,42.1,93,30.12,10.0,Calm,Calm,-,N/A,,Clear,0,2013-10-06 08:53:00
2:53 AM,45.0,44.1,97,30.10,10.0,South,3.5,-,N/A,,Clear,190,2013-10-06 09:53:00
3:53 AM,43.0,41.0,93,30.08,10.0,SSE,4.6,-,N/A,,Clear,160,2013-10-06 10:53:00
4:53 AM,43.0,42.1,97,30.05,10.0,SSE,3.5,-,N/A,,Clear,150,2013-10-06 11:53:00
5:53 AM,44.1,41.0,89,30.04,3.0,SW,4.6,-,N/A,,Clear,220,2013-10-06 12:53:00
6:53 AM,41.0,39.9,96,30.02,10.0,South,3.5,-,N/A,,Clear,180,2013-10-06 13:53:00
7:38 AM,41.0,39.9,96,30.01,1.8,SW,3.5,-,N/A,,Clear,220,2013-10-06 14:38:00
7:47 AM,42.8,41.0,93,30.01,5.0,Calm,Calm,-,N/A,,Partly Cloudy,0,2013-10-06 14:47:00
7:48 AM,42.1,41.0,96,30.01,5.0,Calm,Calm,-,N/A,,Partly Cloudy,0,2013-10-06 14:48:00
8:02 AM,43.0,42.1,97,30.00,10.0,Calm,Calm,-,N/A,,Mostly Cloudy,0,2013-10-06 15:02:00
8:29 AM,46.9,46.0,97,30.00,1.5,Calm,Calm,-,N/A,,Overcast,0,2013-10-06 15:29:00
8:37 AM,46.9,46.0,97,30.00,0.2,Calm,Calm,-,N/A,Fog,Fog,0,2013-10-06 15:37:00
8:53 AM,48.9,48.9,100,30.00,0.2,Calm,Calm,-,N/A,Fog,Fog,0,2013-10-06 15:53:00
9:49 AM,50.0,48.2,94,29.99,0.5,Calm,Calm,-,N/A,Fog,Fog,0,2013-10-06 16:49:00
9:50 AM,50.0,48.0,93,29.99,0.5,Calm,Calm,-,N/A,Fog,Fog,0,2013-10-06 16:50:00
10:07 AM,50.0,48.9,96,29.99,1.2,Calm,Calm,-,N/A,,Overcast,0,2013-10-06 17:07:00
10:30 AM,48.9,48.9,100,29.99,2.0,Calm,Calm,-,N/A,,Overcast,0,2013-10-06 17:30:00
10:39 AM,50.0,48.9,96,29.98,1.5,Calm,Calm,-,N/A,,Overcast,0,2013-10-06 17:39:00
10:53 AM,50.0,48.9,96,29.99,1.2,Calm,Calm,-,N/A,,Overcast,0,2013-10-06 17:53:00
11:09 AM,50.0,50.0,100,29.98,2.0,Calm,Calm,-,N/A,,Overcast,0,2013-10-06 18:09:00
11:17 AM,51.1,50.0,96,29.98,3.0,SW,3.5,-,N/A,,Overcast,230,2013-10-06 18:17:00
11:40 AM,52.0,50.0,93,29.96,10.0,SSW,3.5,-,N/A,,Scattered Clouds,200,2013-10-06 18:40:00
11:53 AM,54.0,50.0,86,29.96,10.0,Calm,Calm,-,N/A,,Clear,0,2013-10-06 18:53:00
12:53 PM,59.0,48.9,69,29.94,10.0,Variable,3.5,-,N/A,,Clear,0,2013-10-06 19:53:00
1:53 PM,60.1,50.0,69,29.91,10.0,Calm,Calm,-,N/A,,Clear,0,2013-10-06 20:53:00
2:53 PM,57.0,50.0,77,29.88,10.0,Variable,3.5,-,N/A,,Clear,0,2013-10-06 21:53:00
3:53 PM,59.0,48.0,67,29.86,10.0,WNW,3.5,-,N/A,,Clear,300,2013-10-06 22:53:00
4:53 PM,62.1,48.0,60,29.84,10.0,North,3.5,-,N/A,,Clear,350,2013-10-06 23:53:00
5:53 PM,57.9,46.9,67,29.85,10.0,Calm,Calm,-,N/A,,Clear,0,2013-10-07 00:53:00
6:53 PM,55.9,46.9,72,29.84,10.0,West,8.1,-,N/A,,Clear,260,2013-10-07 01:53:00
7:53 PM,62.1,39.0,43,29.83,10.0,SSE,11.5,-,N/A,,Scattered Clouds,160,2013-10-07 02:53:00
8:53 PM,64.0,39.0,40,29.81,10.0,South,8.1,-,N/A,,Overcast,180,2013-10-07 03:53:00
9:53 PM,59.0,44.1,58,29.81,10.0,Variable,4.6,-,N/A,,Overcast,0,2013-10-07 04:53:00
10:53 PM,55.0,46.9,74,29.82,10.0,West,3.5,-,N/A,,Overcast,280,2013-10-07 05:53:00
11:53 PM,54.0,48.0,80,29.83,10.0,Calm,Calm,-,0.00,,Overcast,0,2013-10-07 06:53:00